Time,TemperatureF,DewpointF,PressureIn,WindDirection,WindDirectionDegrees,WindSpeedMPH,WindSpeedGustMPH,Humidity,HourlyPrecipIn,Conditions,Clouds,dailyrainin,SoftwareType,DateUTC
2013-02-15 00:03:00,52.0,44.3,30.15,WSW,247,0.0,0.0,75,0.00,,,0.00,Weather View 32 v70,2013-02-15 08:03:00,
2013-02-15 00:08:00,53.0,45.3,30.15,WSW,247,0.0,0.0,75,0.00,,,0.00,Weather View 32 v70,2013-02-15 08:08:00,
2013-02-15 00:13:00,53.0,45.3,30.15,WSW,247,0.0,0.0,75,0.00,,,0.00,Weather View 32 v70,2013-02-15 08:13:00,
2013-02-15 00:18:00,53.0,45.3,30.15,WSW,247,0.0,0.0,75,0.00,,,0.00,Weather View 32 v70,2013-02-15 08:18:00,
2013-02-15 00:23:00,53.0,46.3,30.15,WSW,247,0.0,0.0,78,0.00,,,0.00,Weather View 32 v70,2013-02-15 08:23:00,
2013-02-15 00:28:00,53.0,45.3,30.15,WSW,247,0.0,0.0,75,0.00,,,0.00,Weather View 32 v70,2013-02-15 08:28:00,
2013-02-15 00:33:00,53.0,45.3,30.15,WSW,247,0.0,0.0,75,0.00,,,0.00,Weather View 32 v70,2013-02-15 08:33:00,
2013-02-15 00:38:00,53.0,45.3,30.15,WSW,247,0.0,0.0,75,0.00,,,0.00,Weather View 32 v70,2013-02-15 08:38:00,
2013-02-15 00:43:00,52.0,44.3,30.15,WSW,247,0.0,0.0,75,0.00,,,0.00,Weather View 32 v70,2013-02-15 08:43:00,
2013-02-15 00:48:00,52.0,44.3,30.16,WSW,247,0.0,0.0,75,0.00,,,0.00,Weather View 32 v70,2013-02-15 08:48:00,
2013-02-15 00:53:00,52.0,44.3,30.16,WSW,247,0.0,0.0,75,0.00,,,0.00,Weather View 32 v70,2013-02-15 08:53:00,
2013-02-15 00:58:00,52.0,45.7,30.16,WSW,247,0.0,0.0,79,0.00,,,0.00,Weather View 32 v70,2013-02-15 08:58:00,
2013-02-15 01:03:00,52.0,44.3,30.16,WSW,247,0.0,0.0,75,0.00,,,0.00,Weather View 32 v70,2013-02-15 09:03:00,
2013-02-15 01:08:00,53.0,45.3,30.15,WSW,247,0.0,0.0,75,0.00,,,0.00,Weather View 32 v70,2013-02-15 09:08:00,
2013-02-15 01:13:00,52.0,44.3,30.15,WSW,247,0.0,0.0,75,0.00,,,0.00,Weather View 32 v70,2013-02-15 09:13:00,
2013-02-15 01:22:00,52.0,44.3,30.15,WSW,247,0.0,0.0,75,0.00,,,0.00,Weather View 32 v70,2013-02-15 09:22:00,
2013-02-15 01:27:00,52.0,44.3,30.16,WSW,247,0.0,0.0,75,0.00,,,0.00,Weather View 32 v70,2013-02-15 09:27:00,
2013-02-15 01:32:00,53.0,46.6,30.15,WSW,247,0.0,0.0,79,0.00,,,0.00,Weather View 32 v70,2013-02-15 09:32:00,
2013-02-15 01:37:00,53.0,45.3,30.15,WSW,247,0.0,0.0,75,0.00,,,0.00,Weather View 32 v70,2013-02-15 09:37:00,
2013-02-15 01:42:00,53.0,45.3,30.15,WSW,247,0.0,0.0,75,0.00,,,0.00,Weather View 32 v70,2013-02-15 09:42:00,
2013-02-15 01:47:00,53.0,45.3,30.16,WSW,247,0.0,1.0,75,0.00,,,0.00,Weather View 32 v70,2013-02-15 09:47:00,
2013-02-15 01:52:00,53.0,45.3,30.16,WSW,247,0.0,2.0,75,0.00,,,0.00,Weather View 32 v70,2013-02-15 09:52:00,
2013-02-15 01:57:00,53.0,45.3,30.16,WSW,247,0.0,2.0,75,0.00,,,0.00,Weather View 32 v70,2013-02-15 09:57:00,
2013-02-15 02:02:00,53.0,45.3,30.16,WSW,247,0.0,2.0,75,0.00,,,0.00,Weather View 32 v70,2013-02-15 10:02:00,
2013-02-15 02:07:00,53.0,46.0,30.16,WSW,247,0.0,2.0,77,0.00,,,0.00,Weather View 32 v70,2013-02-15 10:07:00,
2013-02-15 02:12:00,52.0,44.3,30.16,WSW,247,0.0,2.0,75,0.00,,,0.00,Weather View 32 v70,2013-02-15 10:12:00,
2013-02-15 02:17:00,52.0,44.3,30.17,WSW,247,0.0,2.0,75,0.00,,,0.00,Weather View 32 v70,2013-02-15 10:17:00,
2013-02-15 02:22:00,52.0,44.3,30.17,WSW,247,0.0,2.0,75,0.00,,,0.00,Weather View 32 v70,2013-02-15 10:22:00,
2013-02-15 02:27:00,52.0,44.3,30.17,WSW,247,0.0,2.0,75,0.00,,,0.00,Weather View 32 v70,2013-02-15 10:27:00,
2013-02-15 02:32:00,52.0,44.3,30.17,WSW,247,0.0,2.0,75,0.00,,,0.00,Weather View 32 v70,2013-02-15 10:32:00,
2013-02-15 02:37:00,52.0,44.3,30.16,WSW,247,0.0,2.0,75,0.00,,,0.00,Weather View 32 v70,2013-02-15 10:37:00,
2013-02-15 02:42:00,52.0,45.3,30.16,WSW,247,0.0,2.0,78,0.00,,,0.00,Weather View 32 v70,2013-02-15 10:42:00,
2013-02-15 02:52:00,51.0,43.3,30.16,WSW,247,0.0,0.0,75,0.00,,,0.00,Weather View 32 v70,2013-02-15 10:52:00,
2013-02-15 02:57:00,51.0,43.3,30.16,WSW,247,0.0,0.0,75,0.00,,,0.00,Weather View 32 v70,2013-02-15 10:57:00,
2013-02-15 03:02:00,52.0,44.3,30.16,SW,225,0.0,1.0,75,0.00,,,0.00,Weather View 32 v70,2013-02-15 11:02:00,
2013-02-15 03:07:00,52.0,44.3,30.16,SW,225,0.0,1.0,75,0.00,,,0.00,Weather View 32 v70,2013-02-15 11:07:00,
2013-02-15 03:12:00,52.0,44.3,30.16,WSW,247,0.0,1.0,75,0.00,,,0.00,Weather View 32 v70,2013-02-15 11:12:00,
2013-02-15 03:22:00,52.0,44.3,30.16,WSW,247,0.0,1.0,75,0.00,,,0.00,Weather View 32 v70,2013-02-15 11:22:00,
2013-02-15 03:27:00,52.0,44.3,30.16,WSW,247,0.0,1.0,75,0.00,,,0.00,Weather View 32 v70,2013-02-15 11:27:00,
2013-02-15 03:32:00,52.0,44.3,30.16,WSW,247,0.0,1.0,75,0.00,,,0.00,Weather View 32 v70,2013-02-15 11:32:00,
2013-02-15 03:34:00,52.0,44.3,30.16,WSW,247,0.0,1.0,75,0.00,,,0.00,Weather View 32 v70,2013-02-15 11:34:00,
2013-02-15 03:37:00,52.0,44.3,30.16,WSW,247,0.0,1.0,75,0.00,,,0.00,Weather View 32 v70,2013-02-15 11:37:00,
2013-02-15 03:42:00,52.0,44.3,30.16,WSW,247,0.0,1.0,75,0.00,,,0.00,Weather View 32 v70,2013-02-15 11:42:00,
2013-02-15 03:47:00,52.0,44.3,30.15,NNE,22,0.0,1.0,75,0.00,,,0.00,Weather View 32 v70,2013-02-15 11:47:00,
2013-02-15 03:52:00,52.0,45.0,30.15,NNE,22,0.0,1.0,77,0.00,,,0.00,Weather View 32 v70,2013-02-15 11:52:00,
2013-02-15 03:57:00,52.0,44.3,30.15,NNE,22,0.0,1.0,75,0.00,,,0.00,Weather View 32 v70,2013-02-15 11:57:00,
2013-02-15 04:03:00,52.0,44.3,30.15,NNE,22,0.0,1.0,75,0.00,,,0.00,Weather View 32 v70,2013-02-15 12:03:00,
2013-02-15 04:08:00,52.0,44.3,30.15,NNE,22,0.0,1.0,75,0.00,,,0.00,Weather View 32 v70,2013-02-15 12:08:00,
2013-02-15 04:13:00,52.0,45.0,30.16,NNE,22,0.0,0.0,77,0.00,,,0.00,Weather View 32 v70,2013-02-15 12:13:00,
2013-02-15 04:18:00,52.0,44.7,30.16,NNE,22,0.0,0.0,76,0.00,,,0.00,Weather View 32 v70,2013-02-15 12:18:00,
2013-02-15 04:23:00,52.0,44.7,30.16,NNE,22,0.0,0.0,76,0.00,,,0.00,Weather View 32 v70,2013-02-15 12:23:00,
2013-02-15 04:28:00,53.0,45.6,30.15,NNE,22,0.0,0.0,76,0.00,,,0.00,Weather View 32 v70,2013-02-15 12:28:00,
2013-02-15 04:33:00,53.0,45.6,30.15,NNE,22,0.0,0.0,76,0.00,,,0.00,Weather View 32 v70,2013-02-15 12:33:00,
2013-02-15 04:35:00,53.0,45.6,30.15,NNE,22,0.0,0.0,76,0.00,,,0.00,Weather View 32 v70,2013-02-15 12:35:00,
2013-02-15 04:38:00,52.0,44.7,30.15,NNE,22,0.0,0.0,76,0.00,,,0.00,Weather View 32 v70,2013-02-15 12:38:00,
2013-02-15 04:43:00,52.0,44.7,30.16,NNE,22,0.0,0.0,76,0.00,,,0.00,Weather View 32 v70,2013-02-15 12:43:00,
2013-02-15 04:48:00,52.0,44.7,30.16,NNE,22,0.0,0.0,76,0.00,,,0.00,Weather View 32 v70,2013-02-15 12:48:00,
2013-02-15 04:53:00,51.0,43.7,30.16,NNE,22,0.0,0.0,76,0.00,,,0.00,Weather View 32 v70,2013-02-15 12:53:00,
2013-02-15 04:58:00,51.0,43.7,30.17,NNE,22,0.0,0.0,76,0.00,,,0.00,Weather View 32 v70,2013-02-15 12:58:00,
2013-02-15 05:03:00,51.0,43.7,30.17,NNE,22,0.0,0.0,76,0.00,,,0.00,Weather View 32 v70,2013-02-15 13:03:00,
2013-02-15 05:08:00,51.0,43.7,30.17,NNE,22,0.0,0.0,76,0.00,,,0.00,Weather View 32 v70,2013-02-15 13:08:00,
2013-02-15 05:13:00,51.0,43.7,30.17,NNE,22,0.0,0.0,76,0.00,,,0.00,Weather View 32 v70,2013-02-15 13:13:00,
2013-02-15 05:18:00,51.0,43.7,30.17,NNE,22,0.0,0.0,76,0.00,,,0.00,Weather View 32 v70,2013-02-15 13:18:00,
2013-02-15 05:23:00,50.0,42.7,30.17,NNE,22,0.0,0.0,76,0.00,,,0.00,Weather View 32 v70,2013-02-15 13:23:00,
2013-02-15 05:28:00,50.0,42.7,30.17,NNE,22,0.0,0.0,76,0.00,,,0.00,Weather View 32 v70,2013-02-15 13:28:00,
2013-02-15 05:33:00,50.0,43.1,30.17,NNE,22,0.0,0.0,77,0.00,,,0.00,Weather View 32 v70,2013-02-15 13:33:00,
2013-02-15 05:38:00,50.0,43.4,30.17,NNE,22,0.0,0.0,78,0.00,,,0.00,Weather View 32 v70,2013-02-15 13:38:00,
2013-02-15 05:43:00,50.0,43.1,30.17,NNE,22,0.0,0.0,77,0.00,,,0.00,Weather View 32 v70,2013-02-15 13:43:00,
2013-02-15 05:48:00,50.0,43.1,30.17,NNE,22,0.0,0.0,77,0.00,,,0.00,Weather View 32 v70,2013-02-15 13:48:00,
2013-02-15 05:53:00,50.0,43.1,30.17,NNE,22,0.0,0.0,77,0.00,,,0.00,Weather View 32 v70,2013-02-15 13:53:00,
2013-02-15 05:58:00,50.0,43.1,30.17,NNE,22,0.0,0.0,77,0.00,,,0.00,Weather View 32 v70,2013-02-15 13:58:00,
2013-02-15 06:03:00,49.0,42.1,30.17,NNE,22,0.0,0.0,77,0.00,,,0.00,Weather View 32 v70,2013-02-15 14:03:00,
2013-02-15 06:13:00,49.0,42.4,30.18,NNE,22,0.0,0.0,78,0.00,,,0.00,Weather View 32 v70,2013-02-15 14:13:00,
2013-02-15 06:18:00,48.0,41.1,30.18,NNE,22,0.0,0.0,77,0.00,,,0.00,Weather View 32 v70,2013-02-15 14:18:00,
2013-02-15 06:23:00,48.0,41.1,30.18,NNE,22,0.0,0.0,77,0.00,,,0.00,Weather View 32 v70,2013-02-15 14:23:00,
2013-02-15 06:28:00,48.0,41.1,30.18,NNE,22,0.0,0.0,77,0.00,,,0.00,Weather View 32 v70,2013-02-15 14:28:00,
2013-02-15 06:32:00,49.0,41.8,30.18,NNE,22,0.0,0.0,76,0.00,,,0.00,Weather View 32 v70,2013-02-15 14:32:00,
2013-02-15 06:36:00,49.0,41.8,30.18,NNE,22,0.0,0.0,76,0.00,,,0.00,Weather View 32 v70,2013-02-15 14:36:00,
2013-02-15 06:37:00,49.0,40.7,30.18,NNE,22,0.0,0.0,73,0.00,,,0.00,Weather View 32 v70,2013-02-15 14:37:00,
2013-02-15 06:42:00,48.0,36.8,30.19,NNE,22,0.0,0.0,65,0.00,,,0.00,Weather View 32 v70,2013-02-15 14:42:00,
2013-02-15 06:47:00,48.0,36.0,30.19,NNE,22,0.0,0.0,63,0.00,,,0.00,Weather View 32 v70,2013-02-15 14:47:00,
2013-02-15 06:52:00,48.0,35.6,30.19,NNE,22,0.0,0.0,62,0.00,,,0.00,Weather View 32 v70,2013-02-15 14:52:00,
2013-02-15 06:57:00,48.0,35.6,30.19,NNE,22,0.0,0.0,62,0.00,,,0.00,Weather View 32 v70,2013-02-15 14:57:00,
2013-02-15 07:02:00,48.0,35.2,30.19,NNE,22,0.0,0.0,61,0.00,,,0.00,Weather View 32 v70,2013-02-15 15:02:00,
2013-02-15 07:07:00,48.0,34.8,30.19,NNE,22,0.0,0.0,60,0.00,,,0.00,Weather View 32 v70,2013-02-15 15:07:00,
2013-02-15 07:12:00,49.0,34.8,30.19,NNE,22,0.0,0.0,58,0.00,,,0.00,Weather View 32 v70,2013-02-15 15:12:00,
2013-02-15 07:17:00,49.0,34.0,30.19,NNE,22,0.0,0.0,56,0.00,,,0.00,Weather View 32 v70,2013-02-15 15:17:00,
2013-02-15 07:22:00,50.0,-47.2,30.18,NNE,22,0.0,0.0,1,0.00,,,0.00,Weather View 32 v70,2013-02-15 15:22:00,
2013-02-15 07:27:00,51.0,34.9,30.18,NE,45,0.0,0.0,54,0.00,,,0.00,Weather View 32 v70,2013-02-15 15:27:00,
2013-02-15 07:32:00,52.0,35.4,30.18,NE,45,0.0,0.0,53,0.00,,,0.00,Weather View 32 v70,2013-02-15 15:32:00,
2013-02-15 07:36:00,52.0,35.4,30.18,NE,45,0.0,0.0,53,0.00,,,0.00,Weather View 32 v70,2013-02-15 15:36:00,
2013-02-15 07:42:00,54.0,37.2,30.17,ENE,67,0.0,0.0,53,0.00,,,0.00,Weather View 32 v70,2013-02-15 15:42:00,
2013-02-15 07:47:00,55.0,38.1,30.17,ENE,67,0.0,0.0,53,0.00,,,0.00,Weather View 32 v70,2013-02-15 15:47:00,
2013-02-15 07:52:00,55.0,37.7,30.17,ENE,67,0.0,0.0,52,0.00,,,0.00,Weather View 32 v70,2013-02-15 15:52:00,
2013-02-15 07:57:00,56.0,-43.5,30.17,ENE,67,0.0,0.0,1,0.00,,,0.00,Weather View 32 v70,2013-02-15 15:57:00,
2013-02-15 08:02:00,57.0,39.0,30.17,ENE,67,0.0,0.0,51,0.00,,,0.00,Weather View 32 v70,2013-02-15 16:02:00,
2013-02-15 08:07:00,58.0,39.9,30.16,ENE,67,0.0,0.0,51,0.00,,,0.00,Weather View 32 v70,2013-02-15 16:07:00,
2013-02-15 08:12:00,59.0,40.9,30.16,ENE,67,0.0,0.0,51,0.00,,,0.00,Weather View 32 v70,2013-02-15 16:12:00,
2013-02-15 08:17:00,59.0,40.9,30.16,ENE,67,0.0,0.0,51,0.00,,,0.00,Weather View 32 v70,2013-02-15 16:17:00,
2013-02-15 08:22:00,60.0,41.3,30.16,ENE,67,0.0,0.0,50,0.00,,,0.00,Weather View 32 v70,2013-02-15 16:22:00,
2013-02-15 08:27:00,60.0,41.3,30.16,ENE,67,0.0,0.0,50,0.00,,,0.00,Weather View 32 v70,2013-02-15 16:27:00,
2013-02-15 08:32:00,61.0,-40.5,30.16,NE,45,0.0,0.0,1,0.00,,,0.00,Weather View 32 v70,2013-02-15 16:32:00,
2013-02-15 08:37:00,61.0,-40.5,30.16,NE,45,0.0,0.0,1,0.00,,,0.00,Weather View 32 v70,2013-02-15 16:37:00,
2013-02-15 08:42:00,61.0,42.2,30.16,ESE,112,0.0,4.0,50,0.00,,,0.00,Weather View 32 v70,2013-02-15 16:42:00,
2013-02-15 08:47:00,61.0,41.7,30.17,ENE,67,1.0,5.0,49,0.00,,,0.00,Weather View 32 v70,2013-02-15 16:47:00,
2013-02-15 08:52:00,60.0,40.7,30.17,ENE,67,6.0,7.0,49,0.00,,,0.00,Weather View 32 v70,2013-02-15 16:52:00,
2013-02-15 08:58:00,60.0,40.7,30.17,SE,135,3.0,7.0,49,0.00,,,0.00,Weather View 32 v70,2013-02-15 16:58:00,
2013-02-15 09:03:00,61.0,41.7,30.17,SE,135,0.0,7.0,49,0.00,,,0.00,Weather View 32 v70,2013-02-15 17:03:00,
2013-02-15 09:08:00,62.0,42.6,30.17,ESE,112,0.0,7.0,49,0.00,,,0.00,Weather View 32 v70,2013-02-15 17:08:00,
2013-02-15 09:13:00,62.0,42.6,30.17,ESE,112,0.0,7.0,49,0.00,,,0.00,Weather View 32 v70,2013-02-15 17:13:00,
2013-02-15 09:18:00,63.0,43.5,30.17,ENE,67,0.0,7.0,49,0.00,,,0.00,Weather View 32 v70,2013-02-15 17:18:00,
2013-02-15 09:23:00,63.0,43.0,30.16,ESE,112,0.0,7.0,48,0.00,,,0.00,Weather View 32 v70,2013-02-15 17:23:00,
2013-02-15 09:28:00,63.0,-39.3,30.17,NE,45,0.0,7.0,1,0.00,,,0.00,Weather View 32 v70,2013-02-15 17:28:00,
2013-02-15 09:33:00,63.0,42.4,30.17,ENE,67,0.0,7.0,47,0.00,,,0.00,Weather View 32 v70,2013-02-15 17:33:00,
2013-02-15 09:38:00,63.0,42.4,30.16,SE,135,0.0,7.0,47,0.00,,,0.00,Weather View 32 v70,2013-02-15 17:38:00,
2013-02-15 09:43:00,63.0,42.4,30.17,SE,135,0.0,7.0,47,0.00,,,0.00,Weather View 32 v70,2013-02-15 17:43:00,
2013-02-15 09:48:00,63.0,42.4,30.17,ENE,67,0.0,7.0,47,0.00,,,0.00,Weather View 32 v70,2013-02-15 17:48:00,
2013-02-15 09:53:00,63.0,42.4,30.17,ENE,67,2.0,7.0,47,0.00,,,0.00,Weather View 32 v70,2013-02-15 17:53:00,
2013-02-15 09:58:00,63.0,42.4,30.17,SE,135,0.0,6.0,47,0.00,,,0.00,Weather View 32 v70,2013-02-15 17:58:00,
2013-02-15 10:03:00,64.0,-38.7,30.16,SE,135,0.0,6.0,1,0.00,,,0.00,Weather View 32 v70,2013-02-15 18:03:00,
2013-02-15 10:08:00,64.0,42.8,30.16,ENE,67,3.0,6.0,46,0.00,,,0.00,Weather View 32 v70,2013-02-15 18:08:00,
2013-02-15 10:13:00,64.0,42.8,30.17,ESE,112,4.0,7.0,46,0.00,,,0.00,Weather View 32 v70,2013-02-15 18:13:00,
2013-02-15 10:18:00,64.0,42.8,30.17,ESE,112,5.0,7.0,46,0.00,,,0.00,Weather View 32 v70,2013-02-15 18:18:00,
2013-02-15 10:23:00,65.0,43.7,30.17,SE,135,0.0,7.0,46,0.00,,,0.00,Weather View 32 v70,2013-02-15 18:23:00,
2013-02-15 10:28:00,65.0,43.7,30.16,ESE,112,2.0,7.0,46,0.00,,,0.00,Weather View 32 v70,2013-02-15 18:28:00,
2013-02-15 10:33:00,65.0,43.7,30.16,NE,45,3.0,7.0,46,0.00,,,0.00,Weather View 32 v70,2013-02-15 18:33:00,
2013-02-15 10:38:00,66.0,-37.5,30.16,ENE,67,3.0,8.0,1,0.00,,,0.00,Weather View 32 v70,2013-02-15 18:38:00,
2013-02-15 10:39:00,66.0,-37.5,30.16,ENE,67,3.0,8.0,1,0.00,,,0.00,Weather View 32 v70,2013-02-15 18:39:00,
2013-02-15 10:43:00,66.0,44.6,30.16,ENE,67,0.0,8.0,46,0.00,,,0.00,Weather View 32 v70,2013-02-15 18:43:00,
2013-02-15 10:48:00,67.0,45.5,30.16,SE,135,0.0,8.0,46,0.00,,,0.00,Weather View 32 v70,2013-02-15 18:48:00,
2013-02-15 10:53:00,67.0,45.5,30.15,NE,45,0.0,8.0,46,0.00,,,0.00,Weather View 32 v70,2013-02-15 18:53:00,
2013-02-15 10:58:00,67.0,45.5,30.15,SE,135,3.0,8.0,46,0.00,,,0.00,Weather View 32 v70,2013-02-15 18:58:00,
2013-02-15 11:08:00,67.0,45.5,30.15,East,90,4.0,8.0,46,0.00,,,0.00,Weather View 32 v70,2013-02-15 19:08:00,
2013-02-15 11:13:00,67.0,-36.9,30.15,ESE,112,2.0,8.0,1,0.00,,,0.00,Weather View 32 v70,2013-02-15 19:13:00,
2013-02-15 11:18:00,67.0,44.9,30.15,North,360,1.0,8.0,45,0.00,,,0.00,Weather View 32 v70,2013-02-15 19:18:00,
2013-02-15 11:23:00,68.0,45.8,30.15,North,360,0.0,8.0,45,0.00,,,0.00,Weather View 32 v70,2013-02-15 19:23:00,
2013-02-15 11:28:00,68.0,-36.3,30.15,NNE,22,2.0,8.0,1,0.00,,,0.00,Weather View 32 v70,2013-02-15 19:28:00,
2013-02-15 11:33:00,67.0,44.9,30.15,NNE,22,5.0,8.0,45,0.00,,,0.00,Weather View 32 v70,2013-02-15 19:33:00,
2013-02-15 11:38:00,67.0,44.9,30.15,East,90,4.0,8.0,45,0.00,,,0.00,Weather View 32 v70,2013-02-15 19:38:00,
2013-02-15 11:39:00,67.0,44.9,30.15,East,90,4.0,8.0,45,0.00,,,0.00,Weather View 32 v70,2013-02-15 19:39:00,
2013-02-15 11:43:00,67.0,44.3,30.15,WSW,247,0.0,9.0,44,0.00,,,0.00,Weather View 32 v70,2013-02-15 19:43:00,
2013-02-15 11:48:00,67.0,45.5,30.15,SE,135,1.0,9.0,46,0.00,,,0.00,Weather View 32 v70,2013-02-15 19:48:00,
2013-02-15 11:53:00,68.0,45.2,30.14,ENE,67,6.0,9.0,44,0.00,,,0.00,Weather View 32 v70,2013-02-15 19:53:00,
2013-02-15 11:58:00,68.0,45.2,30.14,East,90,4.0,9.0,44,0.00,,,0.00,Weather View 32 v70,2013-02-15 19:58:00,
2013-02-15 12:03:00,68.0,-36.3,30.14,NE,45,3.0,9.0,1,0.00,,,0.00,Weather View 32 v70,2013-02-15 20:03:00,
2013-02-15 12:08:00,68.0,44.6,30.14,NNW,337,0.0,9.0,43,0.00,,,0.00,Weather View 32 v70,2013-02-15 20:08:00,
2013-02-15 12:13:00,69.0,45.5,30.13,East,90,3.0,9.0,43,0.00,,,0.00,Weather View 32 v70,2013-02-15 20:13:00,
2013-02-15 12:18:00,69.0,45.5,30.13,SE,135,0.0,9.0,43,0.00,,,0.00,Weather View 32 v70,2013-02-15 20:18:00,
2013-02-15 12:23:00,70.0,46.4,30.13,North,360,0.0,9.0,43,0.00,,,0.00,Weather View 32 v70,2013-02-15 20:23:00,
2013-02-15 12:28:00,70.0,46.4,30.12,NNE,22,4.0,9.0,43,0.00,,,0.00,Weather View 32 v70,2013-02-15 20:28:00,
2013-02-15 12:33:00,70.0,46.4,30.12,ENE,67,0.0,9.0,43,0.00,,,0.00,Weather View 32 v70,2013-02-15 20:33:00,
2013-02-15 12:38:00,70.0,-35.1,30.12,East,90,1.0,9.0,1,0.00,,,0.00,Weather View 32 v70,2013-02-15 20:38:00,
2013-02-15 12:40:00,70.0,-35.1,30.12,East,90,1.0,9.0,1,0.00,,,0.00,Weather View 32 v70,2013-02-15 20:40:00,
2013-02-15 12:48:00,71.0,46.7,30.12,NNE,22,0.0,9.0,42,0.00,,,0.00,Weather View 32 v70,2013-02-15 20:48:00,
2013-02-15 12:53:00,71.0,46.7,30.11,NW,315,0.0,9.0,42,0.00,,,0.00,Weather View 32 v70,2013-02-15 20:53:00,
2013-02-15 12:58:00,71.0,46.0,30.11,NNE,22,0.0,9.0,41,0.00,,,0.00,Weather View 32 v70,2013-02-15 20:58:00,
2013-02-15 13:03:00,70.0,45.2,30.11,ENE,67,3.0,9.0,41,0.00,,,0.00,Weather View 32 v70,2013-02-15 21:03:00,
2013-02-15 13:08:00,71.0,45.4,30.11,SE,135,1.0,9.0,40,0.00,,,0.00,Weather View 32 v70,2013-02-15 21:08:00,
2013-02-15 13:13:00,71.0,-34.5,30.11,NE,45,0.0,9.0,1,0.00,,,0.00,Weather View 32 v70,2013-02-15 21:13:00,
2013-02-15 13:18:00,71.0,45.4,30.11,ENE,67,2.0,9.0,40,0.00,,,0.00,Weather View 32 v70,2013-02-15 21:18:00,
2013-02-15 13:23:00,71.0,46.0,30.11,NE,45,3.0,9.0,41,0.00,,,0.00,Weather View 32 v70,2013-02-15 21:23:00,
2013-02-15 13:28:00,71.0,45.4,30.11,NNE,22,2.0,9.0,40,0.00,,,0.00,Weather View 32 v70,2013-02-15 21:28:00,
2013-02-15 13:33:00,71.0,44.7,30.11,ENE,67,0.0,9.0,39,0.00,,,0.00,Weather View 32 v70,2013-02-15 21:33:00,
2013-02-15 13:38:00,71.0,44.7,30.11,ESE,112,0.0,9.0,39,0.00,,,0.00,Weather View 32 v70,2013-02-15 21:38:00,
2013-02-15 13:40:00,71.0,44.7,30.11,ESE,112,0.0,9.0,39,0.00,,,0.00,Weather View 32 v70,2013-02-15 21:40:00,
2013-02-15 13:48:00,73.0,-33.3,30.09,NE,45,7.0,9.0,1,0.00,,,0.00,Weather View 32 v70,2013-02-15 21:48:00,
2013-02-15 13:58:00,72.0,45.6,30.10,NE,45,3.0,9.0,39,0.00,,,0.00,Weather View 32 v70,2013-02-15 21:58:00,
2013-02-15 14:03:00,73.0,46.5,30.09,West,270,6.0,9.0,39,0.00,,,0.00,Weather View 32 v70,2013-02-15 22:03:00,
2013-02-15 14:08:00,73.0,46.5,30.09,NNE,22,0.0,9.0,39,0.00,,,0.00,Weather View 32 v70,2013-02-15 22:08:00,
2013-02-15 14:13:00,73.0,45.8,30.09,NNE,22,0.0,9.0,38,0.00,,,0.00,Weather View 32 v70,2013-02-15 22:13:00,
2013-02-15 14:18:00,72.0,44.9,30.09,NE,45,6.0,9.0,38,0.00,,,0.00,Weather View 32 v70,2013-02-15 22:18:00,
2013-02-15 14:23:00,72.0,-33.9,30.10,ESE,112,0.0,9.0,1,0.00,,,0.00,Weather View 32 v70,2013-02-15 22:23:00,
2013-02-15 14:28:00,72.0,44.9,30.10,WNW,292,0.0,9.0,38,0.00,,,0.00,Weather View 32 v70,2013-02-15 22:28:00,
2013-02-15 14:33:00,73.0,45.8,30.09,NNE,22,3.0,9.0,38,0.00,,,0.00,Weather View 32 v70,2013-02-15 22:33:00,
2013-02-15 14:38:00,74.0,46.7,30.09,West,270,3.0,9.0,38,0.00,,,0.00,Weather View 32 v70,2013-02-15 22:38:00,
2013-02-15 14:43:00,74.0,46.7,30.09,NE,45,5.0,9.0,38,0.00,,,0.00,Weather View 32 v70,2013-02-15 22:43:00,
2013-02-15 14:48:00,73.0,45.1,30.09,SW,225,0.0,9.0,37,0.00,,,0.00,Weather View 32 v70,2013-02-15 22:48:00,
2013-02-15 14:53:00,73.0,45.1,30.09,WSW,247,0.0,9.0,37,0.00,,,0.00,Weather View 32 v70,2013-02-15 22:53:00,
2013-02-15 14:58:00,74.0,-32.7,30.09,SE,135,0.0,9.0,1,0.00,,,0.00,Weather View 32 v70,2013-02-15 22:58:00,
2013-02-15 15:03:00,74.0,46.0,30.09,SW,225,0.0,9.0,37,0.00,,,0.00,Weather View 32 v70,2013-02-15 23:03:00,
2013-02-15 15:08:00,74.0,46.0,30.09,NE,45,4.0,9.0,37,0.00,,,0.00,Weather View 32 v70,2013-02-15 23:08:00,
2013-02-15 15:13:00,73.0,45.1,30.09,NE,45,1.0,9.0,37,0.00,,,0.00,Weather View 32 v70,2013-02-15 23:13:00,
2013-02-15 15:23:00,74.0,46.0,30.09,WNW,292,0.0,8.0,37,0.00,,,0.00,Weather View 32 v70,2013-02-15 23:23:00,
2013-02-15 15:28:00,74.0,46.0,30.09,SW,225,0.0,8.0,37,0.00,,,0.00,Weather View 32 v70,2013-02-15 23:28:00,
2013-02-15 15:33:00,74.0,-32.7,30.09,NW,315,0.0,7.0,1,0.00,,,0.00,Weather View 32 v70,2013-02-15 23:33:00,
2013-02-15 15:38:00,74.0,46.0,30.09,WNW,292,0.0,7.0,37,0.00,,,0.00,Weather View 32 v70,2013-02-15 23:38:00,
2013-02-15 15:43:00,73.0,45.1,30.09,NNE,22,0.0,7.0,37,0.00,,,0.00,Weather View 32 v70,2013-02-15 23:43:00,
2013-02-15 15:48:00,73.0,45.1,30.09,WNW,292,0.0,7.0,37,0.00,,,0.00,Weather View 32 v70,2013-02-15 23:48:00,
2013-02-15 15:53:00,74.0,46.0,30.09,NE,45,0.0,7.0,37,0.00,,,0.00,Weather View 32 v70,2013-02-15 23:53:00,
2013-02-15 15:58:00,74.0,46.0,30.09,NE,45,0.0,7.0,37,0.00,,,0.00,Weather View 32 v70,2013-02-15 23:58:00,
2013-02-15 16:02:00,74.0,46.0,30.09,ENE,67,0.0,7.0,37,0.00,,,0.00,Weather View 32 v70,2013-02-16 00:02:00,
2013-02-15 16:07:00,74.0,-32.7,30.09,SW,225,0.0,7.0,1,0.00,,,0.00,Weather View 32 v70,2013-02-16 00:07:00,
2013-02-15 16:12:00,74.0,46.0,30.09,WNW,292,3.0,7.0,37,0.00,,,0.00,Weather View 32 v70,2013-02-16 00:12:00,
2013-02-15 16:17:00,74.0,46.7,30.09,West,270,2.0,7.0,38,0.00,,,0.00,Weather View 32 v70,2013-02-16 00:17:00,
2013-02-15 16:22:00,73.0,45.8,30.09,WNW,292,0.0,7.0,38,0.00,,,0.00,Weather View 32 v70,2013-02-16 00:22:00,
2013-02-15 16:27:00,72.0,44.9,30.09,WNW,292,0.0,7.0,38,0.00,,,0.00,Weather View 32 v70,2013-02-16 00:27:00,
2013-02-15 16:32:00,72.0,45.6,30.09,NW,315,0.0,7.0,39,0.00,,,0.00,Weather View 32 v70,2013-02-16 00:32:00,
2013-02-15 16:37:00,72.0,45.6,30.09,NNE,22,0.0,7.0,39,0.00,,,0.00,Weather View 32 v70,2013-02-16 00:37:00,
2013-02-15 16:42:00,72.0,45.6,30.09,NNE,22,0.0,7.0,39,0.00,,,0.00,Weather View 32 v70,2013-02-16 00:42:00,
2013-02-15 16:47:00,72.0,45.6,30.09,NW,315,0.0,6.0,39,0.00,,,0.00,Weather View 32 v70,2013-02-16 00:47:00,
2013-02-15 16:52:00,72.0,46.3,30.09,West,270,0.0,6.0,40,0.00,,,0.00,Weather View 32 v70,2013-02-16 00:52:00,
2013-02-15 16:57:00,72.0,46.9,30.09,NW,315,0.0,6.0,41,0.00,,,0.00,Weather View 32 v70,2013-02-16 00:57:00,
2013-02-15 17:02:00,72.0,47.6,30.09,NW,315,0.0,6.0,42,0.00,,,0.00,Weather View 32 v70,2013-02-16 01:02:00,
2013-02-15 17:07:00,71.0,46.7,30.09,NW,315,0.0,6.0,42,0.00,,,0.00,Weather View 32 v70,2013-02-16 01:07:00,
2013-02-15 17:12:00,71.0,54.5,30.10,WNW,292,0.0,6.0,56,0.00,,,0.00,Weather View 32 v70,2013-02-16 01:12:00,
2013-02-15 17:17:00,70.0,29.3,30.10,NNE,22,0.0,6.0,22,0.00,,,0.00,Weather View 32 v70,2013-02-16 01:17:00,
2013-02-15 17:22:00,68.0,52.2,30.10,NNE,22,0.0,6.0,57,0.00,,,0.00,Weather View 32 v70,2013-02-16 01:22:00,
2013-02-15 17:27:00,67.0,51.7,30.11,NNE,22,0.0,6.0,58,0.00,,,0.00,Weather View 32 v70,2013-02-16 01:27:00,
2013-02-15 17:32:00,66.0,50.8,30.11,NW,315,0.0,6.0,58,0.00,,,0.00,Weather View 32 v70,2013-02-16 01:32:00,
2013-02-15 17:37:00,66.0,51.2,30.11,NW,315,0.0,6.0,59,0.00,,,0.00,Weather View 32 v70,2013-02-16 01:37:00,
2013-02-15 17:42:00,66.0,51.2,30.11,NW,315,0.0,6.0,59,0.00,,,0.00,Weather View 32 v70,2013-02-16 01:42:00,
2013-02-15 17:47:00,65.0,50.3,30.12,NW,315,0.0,3.0,59,0.00,,,0.00,Weather View 32 v70,2013-02-16 01:47:00,
2013-02-15 17:52:00,65.0,47.4,30.12,WNW,292,0.0,3.0,53,0.00,,,0.00,Weather View 32 v70,2013-02-16 01:52:00,
2013-02-15 17:57:00,64.0,49.8,30.12,NW,315,0.0,3.0,60,0.00,,,0.00,Weather View 32 v70,2013-02-16 01:57:00,
2013-02-15 18:02:00,64.0,50.7,30.13,NW,315,0.0,3.0,62,0.00,,,0.00,Weather View 32 v70,2013-02-16 02:02:00,
2013-02-15 18:07:00,63.0,50.2,30.13,WNW,292,0.0,3.0,63,0.00,,,0.00,Weather View 32 v70,2013-02-16 02:07:00,
2013-02-15 18:12:00,63.0,50.6,30.13,WNW,292,0.0,3.0,64,0.00,,,0.00,Weather View 32 v70,2013-02-16 02:12:00,
2013-02-15 18:17:00,63.0,51.0,30.13,WNW,292,0.0,3.0,65,0.00,,,0.00,Weather View 32 v70,2013-02-16 02:17:00,
2013-02-15 18:22:00,63.0,51.4,30.13,WNW,292,0.0,3.0,66,0.00,,,0.00,Weather View 32 v70,2013-02-16 02:22:00,
2013-02-15 18:27:00,62.0,50.5,30.13,NW,315,0.0,3.0,66,0.00,,,0.00,Weather View 32 v70,2013-02-16 02:27:00,
2013-02-15 18:37:00,62.0,51.7,30.13,NW,315,0.0,3.0,69,0.00,,,0.00,Weather View 32 v70,2013-02-16 02:37:00,
2013-02-15 18:42:00,62.0,51.7,30.13,NW,315,0.0,3.0,69,0.00,,,0.00,Weather View 32 v70,2013-02-16 02:42:00,
2013-02-15 18:47:00,62.0,52.1,30.13,NW,315,0.0,2.0,70,0.00,,,0.00,Weather View 32 v70,2013-02-16 02:47:00,
2013-02-15 18:52:00,62.0,52.5,30.13,NW,315,0.0,2.0,71,0.00,,,0.00,Weather View 32 v70,2013-02-16 02:52:00,
2013-02-15 18:57:00,62.0,52.5,30.13,NW,315,0.0,2.0,71,0.00,,,0.00,Weather View 32 v70,2013-02-16 02:57:00,
2013-02-15 19:02:00,61.0,51.5,30.14,NW,315,0.0,2.0,71,0.00,,,0.00,Weather View 32 v70,2013-02-16 03:02:00,
2013-02-15 19:07:00,61.0,51.9,30.14,NW,315,0.0,3.0,72,0.00,,,0.00,Weather View 32 v70,2013-02-16 03:07:00,
2013-02-15 19:12:00,61.0,51.9,30.13,NW,315,0.0,3.0,72,0.00,,,0.00,Weather View 32 v70,2013-02-16 03:12:00,
2013-02-15 19:17:00,61.0,51.9,30.14,NNW,337,0.0,3.0,72,0.00,,,0.00,Weather View 32 v70,2013-02-16 03:17:00,
2013-02-15 19:27:00,61.0,51.9,30.14,NW,315,0.0,4.0,72,0.00,,,0.00,Weather View 32 v70,2013-02-16 03:27:00,
2013-02-15 19:32:00,61.0,51.9,30.14,NNE,22,0.0,4.0,72,0.00,,,0.00,Weather View 32 v70,2013-02-16 03:32:00,
2013-02-15 19:37:00,61.0,51.9,30.14,NNE,22,0.0,4.0,72,0.00,,,0.00,Weather View 32 v70,2013-02-16 03:37:00,
2013-02-15 19:42:00,61.0,51.9,30.14,NNE,22,0.0,4.0,72,0.00,,,0.00,Weather View 32 v70,2013-02-16 03:42:00,
2013-02-15 19:43:00,61.0,51.9,30.14,NNE,22,0.0,4.0,72,0.00,,,0.00,Weather View 32 v70,2013-02-16 03:43:00,
2013-02-15 19:52:00,61.0,51.9,30.14,WNW,292,0.0,5.0,72,0.00,,,0.00,Weather View 32 v70,2013-02-16 03:52:00,
2013-02-15 19:57:00,61.0,51.9,30.14,NNE,22,0.0,5.0,72,0.00,,,0.00,Weather View 32 v70,2013-02-16 03:57:00,
2013-02-15 20:02:00,60.0,51.3,30.14,NNE,22,0.0,5.0,73,0.00,,,0.00,Weather View 32 v70,2013-02-16 04:02:00,
2013-02-15 20:07:00,60.0,51.7,30.14,NW,315,0.0,5.0,74,0.00,,,0.00,Weather View 32 v70,2013-02-16 04:07:00,
2013-02-15 20:12:00,60.0,51.3,30.14,NW,315,0.0,5.0,73,0.00,,,0.00,Weather View 32 v70,2013-02-16 04:12:00,
2013-02-15 20:17:00,60.0,51.7,30.14,NW,315,0.0,5.0,74,0.00,,,0.00,Weather View 32 v70,2013-02-16 04:17:00,
2013-02-15 20:22:00,60.0,51.7,30.14,NW,315,0.0,5.0,74,0.00,,,0.00,Weather View 32 v70,2013-02-16 04:22:00,
2013-02-15 20:27:00,59.0,50.7,30.14,NW,315,0.0,5.0,74,0.00,,,0.00,Weather View 32 v70,2013-02-16 04:27:00,
2013-02-15 20:32:00,59.0,50.7,30.14,NW,315,0.0,5.0,74,0.00,,,0.00,Weather View 32 v70,2013-02-16 04:32:00,
2013-02-15 20:37:00,58.0,49.7,30.15,NW,315,0.0,5.0,74,0.00,,,0.00,Weather View 32 v70,2013-02-16 04:37:00,
2013-02-15 20:42:00,58.0,49.7,30.15,NW,315,0.0,5.0,74,0.00,,,0.00,Weather View 32 v70,2013-02-16 04:42:00,
2013-02-15 20:44:00,58.0,49.7,30.15,NW,315,0.0,5.0,74,0.00,,,0.00,Weather View 32 v70,2013-02-16 04:44:00,
2013-02-15 20:47:00,59.0,50.3,30.15,NW,315,0.0,5.0,73,0.00,,,0.00,Weather View 32 v70,2013-02-16 04:47:00,
2013-02-15 20:52:00,59.0,50.7,30.15,NW,315,0.0,2.0,74,0.00,,,0.00,Weather View 32 v70,2013-02-16 04:52:00,
2013-02-15 20:57:00,59.0,50.7,30.15,NW,315,0.0,1.0,74,0.00,,,0.00,Weather View 32 v70,2013-02-16 04:57:00,
2013-02-15 21:02:00,59.0,50.7,30.15,NW,315,0.0,1.0,74,0.00,,,0.00,Weather View 32 v70,2013-02-16 05:02:00,
2013-02-15 21:07:00,59.0,50.7,30.15,NW,315,0.0,1.0,74,0.00,,,0.00,Weather View 32 v70,2013-02-16 05:07:00,
2013-02-15 21:12:00,59.0,50.7,30.15,NW,315,0.0,1.0,74,0.00,,,0.00,Weather View 32 v70,2013-02-16 05:12:00,
2013-02-15 21:17:00,58.0,49.7,30.15,NW,315,0.0,0.0,74,0.00,,,0.00,Weather View 32 v70,2013-02-16 05:17:00,
2013-02-15 21:22:00,58.0,49.4,30.16,NW,315,0.0,0.0,73,0.00,,,0.00,Weather View 32 v70,2013-02-16 05:22:00,
2013-02-15 21:32:00,57.0,48.8,30.16,WNW,292,0.0,0.0,74,0.00,,,0.00,Weather View 32 v70,2013-02-16 05:32:00,
2013-02-15 21:37:00,57.0,48.8,30.17,WNW,292,0.0,2.0,74,0.00,,,0.00,Weather View 32 v70,2013-02-16 05:37:00,
2013-02-15 21:42:00,58.0,49.7,30.17,WNW,292,0.0,2.0,74,0.00,,,0.00,Weather View 32 v70,2013-02-16 05:42:00,
2013-02-15 21:44:00,58.0,49.7,30.17,WNW,292,0.0,2.0,74,0.00,,,0.00,Weather View 32 v70,2013-02-16 05:44:00,
2013-02-15 21:52:00,58.0,49.7,30.15,WNW,292,0.0,2.0,74,0.00,,,0.00,Weather View 32 v70,2013-02-16 05:52:00,
2013-02-15 21:58:00,58.0,49.7,30.16,WNW,292,0.0,2.0,74,0.00,,,0.00,Weather View 32 v70,2013-02-16 05:58:00,
2013-02-15 22:03:00,57.0,48.8,30.16,WNW,292,0.0,2.0,74,0.00,,,0.00,Weather View 32 v70,2013-02-16 06:03:00,
2013-02-15 22:08:00,57.0,48.8,30.17,WNW,292,0.0,2.0,74,0.00,,,0.00,Weather View 32 v70,2013-02-16 06:08:00,
2013-02-15 22:13:00,58.0,49.7,30.16,WNW,292,0.0,2.0,74,0.00,,,0.00,Weather View 32 v70,2013-02-16 06:13:00,
2013-02-15 22:18:00,57.0,48.4,30.17,WNW,292,0.0,2.0,73,0.00,,,0.00,Weather View 32 v70,2013-02-16 06:18:00,
2013-02-15 22:23:00,57.0,48.8,30.17,WNW,292,0.0,2.0,74,0.00,,,0.00,Weather View 32 v70,2013-02-16 06:23:00,
2013-02-15 22:28:00,57.0,48.8,30.16,WNW,292,0.0,2.0,74,0.00,,,0.00,Weather View 32 v70,2013-02-16 06:28:00,
2013-02-15 22:33:00,57.0,48.8,30.16,WNW,292,0.0,2.0,74,0.00,,,0.00,Weather View 32 v70,2013-02-16 06:33:00,
2013-02-15 22:38:00,57.0,48.8,30.16,WNW,292,0.0,2.0,74,0.00,,,0.00,Weather View 32 v70,2013-02-16 06:38:00,
2013-02-15 22:43:00,57.0,48.8,30.16,WNW,292,0.0,2.0,74,0.00,,,0.00,Weather View 32 v70,2013-02-16 06:43:00,
2013-02-15 22:45:00,57.0,48.8,30.16,WNW,292,0.0,2.0,74,0.00,,,0.00,Weather View 32 v70,2013-02-16 06:45:00,
2013-02-15 22:48:00,57.0,48.8,30.16,SW,225,0.0,2.0,74,0.00,,,0.00,Weather View 32 v70,2013-02-16 06:48:00,
2013-02-15 22:53:00,56.0,47.8,30.16,SW,225,0.0,2.0,74,0.00,,,0.00,Weather View 32 v70,2013-02-16 06:53:00,
2013-02-15 22:58:00,56.0,48.2,30.17,SW,225,0.0,2.0,75,0.00,,,0.00,Weather View 32 v70,2013-02-16 06:58:00,
2013-02-15 23:03:00,56.0,48.2,30.16,NE,45,0.0,2.0,75,0.00,,,0.00,Weather View 32 v70,2013-02-16 07:03:00,
2013-02-15 23:08:00,56.0,47.8,30.16,NNE,22,0.0,2.0,74,0.00,,,0.00,Weather View 32 v70,2013-02-16 07:08:00,
2013-02-15 23:13:00,56.0,48.2,30.16,NNE,22,0.0,4.0,75,0.00,,,0.00,Weather View 32 v70,2013-02-16 07:13:00,
2013-02-15 23:22:00,55.0,47.2,30.16,NNE,22,0.0,4.0,75,0.00,,,0.00,Weather View 32 v70,2013-02-16 07:22:00,
2013-02-15 23:27:00,55.0,47.2,30.16,WNW,292,0.0,4.0,75,0.00,,,0.00,Weather View 32 v70,2013-02-16 07:27:00,
2013-02-15 23:32:00,55.0,47.2,30.17,WNW,292,0.0,4.0,75,0.00,,,0.00,Weather View 32 v70,2013-02-16 07:32:00,
2013-02-15 23:37:00,55.0,47.2,30.17,WNW,292,0.0,4.0,75,0.00,,,0.00,Weather View 32 v70,2013-02-16 07:37:00,
2013-02-15 23:42:00,55.0,46.8,30.17,WNW,292,0.0,4.0,74,0.00,,,0.00,Weather View 32 v70,2013-02-16 07:42:00,
2013-02-15 23:45:00,55.0,46.8,30.17,WNW,292,0.0,4.0,74,0.00,,,0.00,Weather View 32 v70,2013-02-16 07:45:00,
2013-02-15 23:47:00,55.0,47.2,30.17,WSW,247,0.0,4.0,75,0.00,,,0.00,Weather View 32 v70,2013-02-16 07:47:00,
2013-02-15 23:52:00,55.0,47.2,30.17,WSW,247,0.0,4.0,75,0.00,,,0.00,Weather View 32 v70,2013-02-16 07:52:00,
2013-02-15 23:57:00,55.0,47.2,30.16,WSW,247,0.0,4.0,75,0.00,,,0.00,Weather View 32 v70,2013-02-16 07:57:00,